Time;durP1;ratioP1;P1;durP2;ratioP2;P2;SDS_P1;SDS_P2;PMS_P1;PMS_P2;Temp;Humidity;BMP_temperature;BMP_pressure;BME280_temperature;BME280_humidity;BME280_pressure;Samples;Min_cycle;Max_cycle;Signal;HPM_P1;HPM_P2
2023/07/26 00:00:03;;;;;;;18.83;7.78;;;;;;;-140.66;100.00;55571.53;5119461;28;20035;-75
2023/07/26 00:02:49;;;;;;;15.20;7.38;;;;;;;-140.66;100.00;55571.53;5118890;28;20081;-74
2023/07/26 00:05:35;;;;;;;15.95;6.82;;;;;;;-140.66;100.00;55571.53;5119606;28;20035;-75
2023/07/26 00:08:20;;;;;;;13.82;6.88;;;;;;;-140.66;100.00;55571.53;5118817;28;20398;-76
2023/07/26 00:11:06;;;;;;;16.65;7.15;;;;;;;-140.66;100.00;55571.53;5117629;28;20019;-75
2023/07/26 00:13:52;;;;;;;15.95;7.25;;;;;;;-140.66;100.00;55571.53;5104488;28;20050;-75
2023/07/26 00:16:38;;;;;;;12.75;6.47;;;;;;;-140.66;100.00;55571.53;5117897;28;20037;-75
2023/07/26 00:19:23;;;;;;;15.77;7.63;;;;;;;-140.66;100.00;55571.53;5117411;28;20112;-76
2023/07/26 00:22:09;;;;;;;13.40;7.05;;;;;;;-140.66;100.00;55571.53;5118596;28;20020;-75
2023/07/26 00:24:55;;;;;;;15.65;6.75;;;;;;;-140.66;100.00;55571.53;5117055;28;20088;-75
2023/07/26 00:27:40;;;;;;;16.25;6.65;;;;;;;-140.66;100.00;55571.53;5117197;28;20031;-76
2023/07/26 00:30:26;;;;;;;13.85;6.95;;;;;;;-140.66;100.00;55571.53;5102869;28;20019;-75
2023/07/26 00:33:12;;;;;;;10.52;6.63;;;;;;;-140.66;100.00;55571.53;5117818;28;20348;-75
2023/07/26 00:35:58;;;;;;;15.55;6.20;;;;;;;-140.66;100.00;55571.53;5103303;28;20371;-75
2023/07/26 00:38:44;;;;;;;18.63;6.93;;;;;;;-140.66;100.00;55571.53;5118257;28;20035;-76
2023/07/26 00:41:29;;;;;;;15.90;6.55;;;;;;;-140.66;100.00;55571.53;5117159;28;20173;-75
2023/07/26 00:44:15;;;;;;;15.40;6.65;;;;;;;-140.66;100.00;55571.53;5118644;28;20070;-75
2023/07/26 00:47:01;;;;;;;12.10;6.45;;;;;;;-140.66;100.00;55571.53;5102978;28;20030;-75
2023/07/26 00:49:47;;;;;;;18.38;6.55;;;;;;;-140.66;100.00;55571.53;5117667;28;20020;-75
2023/07/26 00:52:33;;;;;;;16.15;6.13;;;;;;;-140.66;100.00;55571.53;5117491;28;20020;-75
2023/07/26 00:55:19;;;;;;;15.88;6.70;;;;;;;-140.66;100.00;55571.53;5117170;28;20019;-75
2023/07/26 00:58:05;;;;;;;15.90;6.32;;;;;;;-140.66;100.00;55571.53;5103055;28;20024;-75
2023/07/26 01:00:52;;;;;;;16.25;6.63;;;;;;;-140.66;100.00;55571.53;5117404;28;20062;-75
2023/07/26 01:03:37;;;;;;;17.65;6.50;;;;;;;-140.66;100.00;55571.53;5116233;28;20020;-75
2023/07/26 01:06:26;;;;;;;16.42;6.30;;;;;;;-140.66;100.00;55571.53;5117364;28;20023;-74
2023/07/26 01:09:30;;;;;;;18.15;6.18;;;;;;;-140.66;100.00;55571.53;5116467;28;20471;-75
2023/07/26 01:12:26;;;;;;;13.63;5.95;;;;;;;-140.66;100.00;55571.53;5117742;28;20024;-75
2023/07/26 01:15:14;;;;;;;13.60;5.80;;;;;;;-140.66;100.00;55571.53;5117205;28;20084;-75
2023/07/26 01:18:11;;;;;;;12.20;6.13;;;;;;;-140.66;100.00;55571.53;5101672;28;20119;-75
2023/07/26 01:20:56;;;;;;;18.23;6.25;;;;;;;-140.66;100.00;55571.53;5101019;28;20063;-75
2023/07/26 01:23:42;;;;;;;17.02;6.05;;;;;;;-140.66;100.00;55571.53;5102097;28;20031;-75
2023/07/26 01:26:28;;;;;;;15.73;6.43;;;;;;;-140.66;100.00;55571.53;5117549;28;20047;-75
2023/07/26 01:29:14;;;;;;;11.63;6.60;;;;;;;-140.66;100.00;55571.53;5102594;28;20074;-75
2023/07/26 01:32:00;;;;;;;16.15;7.00;;;;;;;-140.66;100.00;55571.53;5115955;28;20110;-75
2023/07/26 01:34:46;;;;;;;15.40;5.88;;;;;;;-140.66;100.00;55571.53;5116942;28;20020;-75
2023/07/26 01:37:32;;;;;;;14.52;6.28;;;;;;;-140.66;100.00;55571.53;5116540;28;20111;-75
2023/07/26 01:40:18;;;;;;;15.07;6.88;;;;;;;-140.66;100.00;55571.53;5102198;28;20024;-75
2023/07/26 01:43:04;;;;;;;17.85;6.97;;;;;;;-140.66;100.00;55571.53;5116281;28;20034;-75
2023/07/26 01:45:50;;;;;;;17.05;6.00;;;;;;;-140.66;100.00;55571.53;5117307;28;20032;-74
2023/07/26 01:48:36;;;;;;;16.52;6.40;;;;;;;-140.66;100.00;55571.53;5116455;28;20097;-75
2023/07/26 01:51:21;;;;;;;15.77;6.25;;;;;;;-140.66;100.00;55571.53;5101552;28;20019;-75
2023/07/26 01:54:08;;;;;;;12.90;5.85;;;;;;;-140.66;100.00;55571.53;5115893;28;20035;-75
2023/07/26 01:56:53;;;;;;;16.13;6.22;;;;;;;-140.66;100.00;55571.53;5116961;28;20031;-75
2023/07/26 01:59:39;;;;;;;17.05;6.30;;;;;;;-140.66;100.00;55571.53;5116043;28;20027;-75
2023/07/26 02:02:25;;;;;;;14.98;6.53;;;;;;;-140.66;100.00;55571.53;5116063;28;20023;-75
2023/07/26 02:05:11;;;;;;;15.40;6.05;;;;;;;-140.66;100.00;55571.53;5115716;28;20085;-76
2023/07/26 02:07:57;;;;;;;15.30;5.95;;;;;;;-140.66;100.00;55571.53;5116386;28;20019;-74
2023/07/26 02:10:43;;;;;;;12.90;6.57;;;;;;;-140.66;100.00;55571.53;5116804;28;20102;-74
2023/07/26 02:13:29;;;;;;;18.67;6.60;;;;;;;-140.66;100.00;55571.53;5116639;28;20035;-75
2023/07/26 02:16:14;;;;;;;18.02;6.38;;;;;;;-140.66;100.00;55571.53;5102441;28;20024;-75
2023/07/26 02:19:00;;;;;;;14.88;6.30;;;;;;;-140.66;100.00;55571.53;5101274;28;20020;-75
2023/07/26 02:21:46;;;;;;;14.43;6.32;;;;;;;-140.66;100.00;55571.53;5115732;28;20126;-75
2023/07/26 02:24:34;;;;;;;15.80;6.60;;;;;;;-140.66;100.00;55571.53;5115940;28;20027;-75
2023/07/26 02:27:19;;;;;;;17.55;6.47;;;;;;;-140.66;100.00;55571.53;5101430;28;20027;-75
2023/07/26 02:30:06;;;;;;;14.20;6.45;;;;;;;-140.66;100.00;55571.53;5115210;28;20359;-76
2023/07/26 02:32:51;;;;;;;17.92;6.45;;;;;;;-140.66;100.00;55571.53;5116273;28;20034;-75
2023/07/26 02:35:37;;;;;;;12.93;5.93;;;;;;;-140.66;100.00;55571.53;5114997;28;20036;-75
2023/07/26 02:38:23;;;;;;;13.27;6.07;;;;;;;-140.66;100.00;55571.53;5115030;28;20023;-75
2023/07/26 02:41:09;;;;;;;15.38;6.70;;;;;;;-140.66;100.00;55571.53;5100589;28;20027;-75
2023/07/26 02:43:54;;;;;;;12.68;6.10;;;;;;;-140.66;100.00;55571.53;5101450;28;20069;-75
2023/07/26 02:46:40;;;;;;;19.13;6.97;;;;;;;-140.66;100.00;55571.53;5115367;28;20114;-75
2023/07/26 02:49:26;;;;;;;14.02;7.20;;;;;;;-140.66;100.00;55571.53;5115631;28;20026;-75
2023/07/26 02:52:12;;;;;;;11.57;6.07;;;;;;;-140.66;100.00;55571.53;5101139;28;20019;-75
2023/07/26 02:54:58;;;;;;;16.60;7.03;;;;;;;-140.66;100.00;55571.53;5115740;28;20063;-75
2023/07/26 02:57:44;;;;;;;13.80;6.57;;;;;;;-140.66;100.00;55571.53;5115648;28;20039;-75
2023/07/26 03:00:29;;;;;;;13.80;6.53;;;;;;;-140.66;100.00;55571.53;5115115;28;20039;-75
2023/07/26 03:03:15;;;;;;;13.85;6.85;;;;;;;-140.66;100.00;55571.53;5114118;28;20027;-75
2023/07/26 03:06:01;;;;;;;12.88;6.60;;;;;;;-140.66;100.00;55571.53;5101399;28;20037;-75
2023/07/26 03:08:47;;;;;;;17.42;7.10;;;;;;;-140.66;100.00;55571.53;5114923;28;20034;-75
2023/07/26 03:11:32;;;;;;;20.00;7.57;;;;;;;-140.66;100.00;55571.53;5114915;28;20023;-75
2023/07/26 03:14:18;;;;;;;16.33;7.15;;;;;;;-140.66;100.00;55571.53;5100904;28;20016;-75
2023/07/26 03:17:04;;;;;;;17.52;7.05;;;;;;;-140.66;100.00;55571.53;5114635;28;20050;-76
2023/07/26 03:19:51;;;;;;;18.20;6.90;;;;;;;-140.66;100.00;55571.53;5115507;28;20047;-75
2023/07/26 03:22:36;;;;;;;18.48;7.18;;;;;;;-140.66;100.00;55571.53;5100470;28;20488;-75
2023/07/26 03:25:22;;;;;;;17.48;7.43;;;;;;;-140.66;100.00;55571.53;5101320;28;20039;-75
2023/07/26 03:28:08;;;;;;;14.00;6.55;;;;;;;-140.66;100.00;55571.53;5114644;28;20027;-75
2023/07/26 03:30:54;;;;;;;13.15;6.30;;;;;;;-140.66;100.00;55571.53;5114989;28;20051;-75
2023/07/26 03:33:39;;;;;;;16.55;6.30;;;;;;;-140.66;100.00;55571.53;5113916;28;20019;-74
2023/07/26 03:36:25;;;;;;;16.05;6.53;;;;;;;-140.66;100.00;55571.53;5115046;28;20097;-75
2023/07/26 03:39:11;;;;;;;15.60;7.00;;;;;;;-140.66;100.00;55571.53;5099642;28;20051;-74
2023/07/26 03:41:57;;;;;;;15.32;6.72;;;;;;;-140.66;100.00;55571.53;5114344;28;20451;-75
2023/07/26 03:44:42;;;;;;;12.80;7.05;;;;;;;-140.66;100.00;55571.53;5113276;28;20027;-75
2023/07/26 03:47:28;;;;;;;21.02;7.53;;;;;;;-140.66;100.00;55571.53;5100126;28;20077;-75
2023/07/26 03:50:14;;;;;;;14.25;6.70;;;;;;;-140.66;100.00;55571.53;5115425;28;20065;-74
2023/07/26 03:53:00;;;;;;;17.50;7.15;;;;;;;-140.66;100.00;55571.53;5099355;28;20360;-76
2023/07/26 03:55:46;;;;;;;19.10;7.05;;;;;;;-140.66;100.00;55571.53;5114125;28;20031;-75
2023/07/26 03:58:31;;;;;;;13.48;6.53;;;;;;;-140.66;100.00;55571.53;5099975;28;20024;-75
2023/07/26 04:01:17;;;;;;;17.58;7.13;;;;;;;-140.66;100.00;55571.53;5099704;28;20032;-75
2023/07/26 04:04:03;;;;;;;19.27;6.82;;;;;;;-140.66;100.00;55571.53;5100400;28;20038;-75
2023/07/26 04:06:49;;;;;;;15.98;6.57;;;;;;;-140.66;100.00;55571.53;5100170;28;20028;-76
2023/07/26 04:09:34;;;;;;;15.05;7.00;;;;;;;-140.66;100.00;55571.53;5101008;28;20027;-75
2023/07/26 04:12:20;;;;;;;14.10;6.65;;;;;;;-140.66;100.00;55571.53;5114372;28;20015;-76
2023/07/26 04:15:06;;;;;;;17.27;6.47;;;;;;;-140.66;100.00;55571.53;5101301;28;20379;-75
2023/07/26 04:17:52;;;;;;;15.80;6.82;;;;;;;-140.66;100.00;55571.53;5113496;28;20129;-75
2023/07/26 04:20:38;;;;;;;10.63;6.70;;;;;;;-140.66;100.00;55571.53;5098663;28;20043;-75
2023/07/26 04:23:24;;;;;;;15.32;6.55;;;;;;;-140.66;100.00;55571.53;5099545;28;20513;-75
2023/07/26 04:26:09;;;;;;;13.77;6.43;;;;;;;-140.66;100.00;55571.53;5114322;28;20384;-75
2023/07/26 04:28:55;;;;;;;20.63;7.72;;;;;;;-140.66;100.00;55571.53;5113998;28;20046;-75
2023/07/26 04:31:41;;;;;;;23.00;7.60;;;;;;;-140.66;100.00;55571.53;5113417;28;20023;-75
2023/07/26 04:34:26;;;;;;;16.98;7.18;;;;;;;-140.66;100.00;55571.53;5114564;28;20024;-75
2023/07/26 04:37:12;;;;;;;15.55;6.43;;;;;;;-140.66;100.00;55571.53;5113744;28;20096;-75
2023/07/26 04:39:58;;;;;;;19.38;7.60;;;;;;;-140.66;100.00;55571.53;5114357;28;20027;-75
2023/07/26 04:42:44;;;;;;;13.63;6.72;;;;;;;-140.66;100.00;55571.53;5113394;28;20466;-75
2023/07/26 04:45:30;;;;;;;14.38;7.85;;;;;;;-140.66;100.00;55571.53;5115413;28;20458;-75
2023/07/26 04:48:17;;;;;;;16.25;7.70;;;;;;;-140.66;100.00;55571.53;5117585;28;20351;-75
2023/07/26 04:51:03;;;;;;;16.48;7.40;;;;;;;-140.66;100.00;55571.53;5117021;28;20455;-75
2023/07/26 04:53:50;;;;;;;20.38;7.10;;;;;;;-140.66;100.00;55571.53;5116307;28;20027;-74
2023/07/26 04:56:35;;;;;;;22.35;8.68;;;;;;;-140.66;100.00;55571.53;5117172;28;20109;-75
2023/07/26 04:59:21;;;;;;;20.92;7.95;;;;;;;-140.66;100.00;55571.53;5117002;28;20519;-75
2023/07/26 05:02:07;;;;;;;27.38;7.13;;;;;;;-140.66;100.00;55571.53;5116657;28;20359;-74
2023/07/26 05:04:53;;;;;;;23.77;6.97;;;;;;;-140.66;100.00;55571.53;5117209;28;20084;-75
2023/07/26 05:07:39;;;;;;;15.98;7.50;;;;;;;-140.66;100.00;55571.53;5116845;28;20032;-75
2023/07/26 05:10:25;;;;;;;19.85;6.43;;;;;;;-140.66;100.00;55571.53;5116133;28;20085;-74
2023/07/26 05:13:11;;;;;;;19.25;6.60;;;;;;;-140.66;100.00;55571.53;5117456;28;20478;-75
2023/07/26 05:15:57;;;;;;;21.85;7.03;;;;;;;-140.66;100.00;55571.53;5116968;28;20363;-76
2023/07/26 05:18:42;;;;;;;18.13;7.68;;;;;;;-140.66;100.00;55571.53;5117406;28;20165;-75
2023/07/26 05:21:28;;;;;;;16.90;7.45;;;;;;;-140.66;100.00;55571.53;5116766;28;20460;-75
2023/07/26 05:24:14;;;;;;;19.20;6.97;;;;;;;-140.66;100.00;55571.53;5102317;28;20030;-75
2023/07/26 05:27:00;;;;;;;43.72;7.68;;;;;;;-140.66;100.00;55571.53;5116733;28;20024;-75
2023/07/26 05:29:45;;;;;;;19.38;7.30;;;;;;;-140.66;100.00;55571.53;5115512;28;20032;-76
2023/07/26 05:32:31;;;;;;;18.58;7.38;;;;;;;-140.66;100.00;55571.53;5116665;28;20452;-75
2023/07/26 05:35:17;;;;;;;31.50;7.45;;;;;;;-140.66;100.00;55571.53;5116285;28;20038;-75
2023/07/26 05:38:03;;;;;;;20.80;6.82;;;;;;;-140.66;100.00;55571.53;5116805;28;20038;-75
2023/07/26 05:40:48;;;;;;;18.95;6.68;;;;;;;-140.66;100.00;55571.53;5117178;28;20027;-75
2023/07/26 05:43:34;;;;;;;16.00;6.88;;;;;;;-140.66;100.00;55571.53;5101323;28;20066;-75
2023/07/26 05:46:20;;;;;;;25.00;7.53;;;;;;;-140.66;100.00;55571.53;5117136;28;20036;-76
2023/07/26 05:49:06;;;;;;;18.38;7.18;;;;;;;-140.66;100.00;55571.53;5101700;28;20034;-75
2023/07/26 05:51:51;;;;;;;16.85;6.72;;;;;;;-140.66;100.00;55571.53;5100321;28;20035;-74
2023/07/26 05:54:37;;;;;;;25.40;8.07;;;;;;;-140.66;100.00;55571.53;5116497;28;20043;-75
2023/07/26 05:57:23;;;;;;;23.00;6.90;;;;;;;-140.66;100.00;55571.53;5116322;28;20027;-75
2023/07/26 06:00:10;;;;;;;24.92;7.82;;;;;;;-140.66;100.00;55571.53;5116452;28;20352;-75
2023/07/26 06:02:56;;;;;;;19.17;7.10;;;;;;;-140.66;100.00;55571.53;5121483;28;20027;-74
2023/07/26 06:05:41;;;;;;;21.88;7.38;;;;;;;-140.66;100.00;55571.53;5106080;28;20106;-74
2023/07/26 06:08:27;;;;;;;21.50;7.03;;;;;;;-140.66;100.00;55571.53;5102755;28;20088;-75
2023/07/26 06:11:13;;;;;;;17.40;7.18;;;;;;;-140.66;100.00;55571.53;5121670;28;20138;-75
2023/07/26 06:13:59;;;;;;;21.00;7.15;;;;;;;-140.66;100.00;55571.53;5126012;28;20447;-76
2023/07/26 06:16:45;;;;;;;20.05;7.40;;;;;;;-140.66;100.00;55571.53;5102331;28;20035;-75
2023/07/26 06:19:30;;;;;;;20.65;7.38;;;;;;;-140.66;100.00;55571.53;5115730;28;20019;-75
2023/07/26 06:22:16;;;;;;;14.15;6.90;;;;;;;-140.66;100.00;55571.53;5116367;28;20470;-75
2023/07/26 06:25:03;;;;;;;18.17;7.47;;;;;;;-140.66;100.00;55571.53;5115855;28;20028;-75
2023/07/26 06:27:50;;;;;;;20.42;8.93;;;;;;;-140.66;100.00;55571.53;5116158;28;20047;-77
2023/07/26 06:30:36;;;;;;;15.98;7.60;;;;;;;-140.66;100.00;55571.53;5101093;28;20470;-76
2023/07/26 06:33:22;;;;;;;24.33;8.13;;;;;;;-140.66;100.00;55571.53;5102294;28;20055;-75
2023/07/26 06:36:07;;;;;;;15.80;7.55;;;;;;;-140.66;100.00;55571.53;5115602;28;20372;-75
2023/07/26 06:38:53;;;;;;;18.60;7.07;;;;;;;-140.66;100.00;55571.53;5115145;28;20023;-75
2023/07/26 06:41:39;;;;;;;16.95;7.28;;;;;;;-140.66;100.00;55571.53;5115320;28;20028;-75
2023/07/26 06:44:24;;;;;;;18.05;6.85;;;;;;;-140.66;100.00;55571.53;5115690;28;20131;-75
2023/07/26 06:47:10;;;;;;;20.08;7.03;;;;;;;-140.66;100.00;55571.53;5115470;28;20444;-75
2023/07/26 06:49:56;;;;;;;15.82;7.22;;;;;;;-140.66;100.00;55571.53;5115640;28;20078;-76
2023/07/26 06:52:41;;;;;;;22.35;7.40;;;;;;;-140.66;100.00;55571.53;5101668;28;20451;-75
2023/07/26 06:55:27;;;;;;;17.75;7.47;;;;;;;-140.66;100.00;55571.53;5100009;28;20031;-75
2023/07/26 06:58:13;;;;;;;18.60;7.30;;;;;;;-140.66;100.00;55571.53;5114954;28;20020;-75
2023/07/26 07:00:59;;;;;;;35.95;7.75;;;;;;;-140.66;100.00;55571.53;5100791;28;20059;-78
2023/07/26 07:03:45;;;;;;;21.48;7.20;;;;;;;-140.66;100.00;55571.53;5114958;28;20039;-75
2023/07/26 07:06:31;;;;;;;22.35;7.05;;;;;;;-140.66;100.00;55571.53;5115502;28;20023;-75
2023/07/26 07:09:16;;;;;;;15.50;6.72;;;;;;;-140.66;100.00;55571.53;5114112;28;20038;-76
2023/07/26 07:12:03;;;;;;;19.98;7.72;;;;;;;-140.66;100.00;55571.53;5113237;28;20028;-75
2023/07/26 07:14:49;;;;;;;21.45;7.03;;;;;;;-140.66;100.00;55571.53;5114816;28;20054;-76
2023/07/26 07:17:35;;;;;;;20.30;7.18;;;;;;;-140.66;100.00;55571.53;5099593;28;20463;-75
2023/07/26 07:20:20;;;;;;;23.20;7.63;;;;;;;-140.66;100.00;55571.53;5099423;28;20048;-76
2023/07/26 07:23:06;;;;;;;22.85;7.40;;;;;;;-140.66;100.00;55571.53;5114947;28;20035;-75
2023/07/26 07:25:56;;;;;;;16.25;7.38;;;;;;;-140.66;100.00;55571.53;5114592;28;20023;-75
2023/07/26 07:28:41;;;;;;;27.98;7.80;;;;;;;-140.66;100.00;55571.53;5100264;28;20086;-76
2023/07/26 07:31:27;;;;;;;20.10;7.53;;;;;;;-140.66;100.00;55571.53;5115108;28;20031;-76
2023/07/26 07:34:13;;;;;;;19.00;7.05;;;;;;;-140.66;100.00;55571.53;5115256;28;20023;-76
2023/07/26 07:36:59;;;;;;;17.50;7.22;;;;;;;-140.66;100.00;55571.53;5115395;28;20032;-76
2023/07/26 07:39:44;;;;;;;20.02;7.78;;;;;;;-140.66;100.00;55571.53;5113421;28;20059;-76
2023/07/26 07:42:30;;;;;;;21.77;7.13;;;;;;;-140.66;100.00;55571.53;5114979;28;20411;-76
2023/07/26 07:45:16;;;;;;;20.17;7.90;;;;;;;-140.66;100.00;55571.53;5118050;28;20350;-75
2023/07/26 07:48:02;;;;;;;25.98;7.70;;;;;;;-140.66;100.00;55571.53;5133550;28;20099;-76
2023/07/26 07:50:55;;;;;;;16.92;6.95;;;;;;;-140.66;100.00;55571.53;5114704;28;20122;-76
2023/07/26 07:53:41;;;;;;;19.02;7.22;;;;;;;-140.66;100.00;55571.53;5114432;28;20020;-76
2023/07/26 07:56:26;;;;;;;23.13;7.65;;;;;;;-140.66;100.00;55571.53;5114182;28;20020;-76
2023/07/26 07:59:12;;;;;;;23.10;7.13;;;;;;;-140.66;100.00;55571.53;5113957;28;20046;-76
2023/07/26 08:01:58;;;;;;;25.08;6.88;;;;;;;-140.66;100.00;55571.53;5114597;28;20054;-77
2023/07/26 08:04:44;;;;;;;27.98;8.02;;;;;;;-140.66;100.00;55571.53;5114195;28;20070;-76
2023/07/26 08:07:29;;;;;;;21.88;7.93;;;;;;;-140.66;100.00;55571.53;5115465;28;20035;-76
2023/07/26 08:10:15;;;;;;;29.35;7.65;;;;;;;-140.66;100.00;55571.53;5114835;28;20023;-76
2023/07/26 08:13:01;;;;;;;29.60;7.50;;;;;;;-140.66;100.00;55571.53;5098518;28;20024;-76
2023/07/26 08:15:46;;;;;;;21.80;7.50;;;;;;;-140.66;100.00;55571.53;5099104;28;20027;-76
2023/07/26 08:18:32;;;;;;;15.38;6.90;;;;;;;-140.66;100.00;55571.53;5114352;28;20027;-76
2023/07/26 08:21:18;;;;;;;22.50;7.53;;;;;;;-140.66;100.00;55571.53;5116838;28;20054;-76
2023/07/26 08:24:04;;;;;;;16.08;7.72;;;;;;;-140.66;100.00;55571.53;5118397;28;20036;-76
2023/07/26 08:26:52;;;;;;;21.38;7.70;;;;;;;-140.66;100.00;55571.53;5117711;28;20085;-77
2023/07/26 08:29:37;;;;;;;20.77;7.57;;;;;;;-140.66;100.00;55571.53;5119092;28;20024;-77
2023/07/26 08:32:23;;;;;;;22.58;7.90;;;;;;;-140.66;100.00;55571.53;5117929;28;20509;-76
2023/07/26 08:35:09;;;;;;;26.67;7.72;;;;;;;-140.66;100.00;55571.53;5116744;28;20055;-76
2023/07/26 08:37:55;;;;;;;24.25;7.35;;;;;;;-140.66;100.00;55571.53;5118456;28;20107;-75
2023/07/26 08:40:46;;;;;;;18.35;8.05;;;;;;;-140.66;100.00;55571.53;5118171;28;20031;-76
2023/07/26 08:43:36;;;;;;;23.70;8.13;;;;;;;-140.66;100.00;55571.53;5117830;28;20023;-76
2023/07/26 08:46:23;;;;;;;25.25;8.13;;;;;;;-140.66;100.00;55571.53;5118095;28;20028;-77
2023/07/26 08:49:09;;;;;;;33.25;8.68;;;;;;;-140.66;100.00;55571.53;5103571;28;20081;-76
2023/07/26 08:51:57;;;;;;;32.13;8.75;;;;;;;-140.66;100.00;55571.53;5118211;28;20030;-77
2023/07/26 08:54:45;;;;;;;24.45;8.23;;;;;;;-140.66;100.00;55571.53;5103059;28;20119;-76
2023/07/26 08:57:31;;;;;;;20.52;8.27;;;;;;;-140.66;100.00;55571.53;5117043;28;20040;-77
2023/07/26 09:00:17;;;;;;;24.58;8.73;;;;;;;-140.66;100.00;55571.53;5118053;28;20118;-77
2023/07/26 09:03:06;;;;;;;27.88;8.45;;;;;;;-140.66;100.00;55571.53;5117201;28;20028;-77
2023/07/26 09:06:05;;;;;;;22.98;8.73;;;;;;;-140.66;100.00;55571.53;5117614;28;20124;-76
2023/07/26 09:08:51;;;;;;;24.05;8.32;;;;;;;-140.66;100.00;55571.53;5117189;28;20032;-76
2023/07/26 09:11:48;;;;;;;23.15;7.90;;;;;;;-140.66;100.00;55571.53;5116388;28;20050;-77
2023/07/26 09:14:34;;;;;;;22.85;8.25;;;;;;;-140.66;100.00;55571.53;5101941;28;20028;-77
2023/07/26 09:17:20;;;;;;;27.08;8.27;;;;;;;-140.66;100.00;55571.53;5118154;28;20023;-76
2023/07/26 09:20:21;;;;;;;25.00;8.45;;;;;;;-140.66;100.00;55571.53;5108845;28;20051;-77
2023/07/26 09:23:08;;;;;;;24.70;8.43;;;;;;;-140.66;100.00;55571.53;5097593;28;20067;-77
2023/07/26 09:25:54;;;;;;;23.15;9.50;;;;;;;-140.66;100.00;55571.53;5096689;28;20027;-77
2023/07/26 09:28:50;;;;;;;26.83;9.00;;;;;;;-140.66;100.00;55571.53;5097218;28;20024;-76
2023/07/26 09:31:38;;;;;;;28.75;8.73;;;;;;;-140.66;100.00;55571.53;5080245;28;20086;-77
2023/07/26 09:34:24;;;;;;;25.17;8.68;;;;;;;-140.66;100.00;55571.53;5095959;28;20028;-76
2023/07/26 09:37:20;;;;;;;32.50;8.43;;;;;;;-140.66;100.00;55571.53;5096101;28;20398;-76
2023/07/26 09:40:07;;;;;;;21.70;8.85;;;;;;;-140.66;100.00;55571.53;5096847;28;20412;-76
2023/07/26 09:42:52;;;;;;;24.23;8.73;;;;;;;-140.66;100.00;55571.53;5082281;28;20067;-77
2023/07/26 09:45:40;;;;;;;20.27;7.82;;;;;;;-140.66;100.00;55571.53;5094831;28;20020;-77
2023/07/26 09:48:26;;;;;;;23.50;8.10;;;;;;;-140.66;100.00;55571.53;5081469;28;20452;-76
2023/07/26 09:51:13;;;;;;;29.08;8.75;;;;;;;-140.66;100.00;55571.53;5095119;28;20136;-76
2023/07/26 09:53:59;;;;;;;27.58;9.35;;;;;;;-140.66;100.00;55571.53;5081592;28;20035;-77
2023/07/26 09:56:45;;;;;;;24.77;8.02;;;;;;;-140.66;100.00;55571.53;5068764;28;20128;-77
2023/07/26 09:59:33;;;;;;;30.15;9.25;;;;;;;-140.66;100.00;55571.53;5082192;28;20105;-76
2023/07/26 10:02:20;;;;;;;18.55;7.78;;;;;;;-140.66;100.00;55571.53;5094466;28;20020;-77
2023/07/26 10:05:08;;;;;;;23.75;8.32;;;;;;;-140.66;100.00;55571.53;5095217;28;20120;-76
2023/07/26 10:07:55;;;;;;;22.33;8.32;;;;;;;-140.66;100.00;55571.53;5096491;28;20032;-76
2023/07/26 10:10:42;;;;;;;29.00;8.57;;;;;;;-140.66;100.00;55571.53;5094208;28;20036;-76
2023/07/26 10:13:30;;;;;;;28.40;8.85;;;;;;;-140.66;100.00;55571.53;5095109;28;20024;-77
2023/07/26 10:16:16;;;;;;;23.88;8.30;;;;;;;-140.66;100.00;55571.53;5095652;28;20444;-76
2023/07/26 10:19:03;;;;;;;29.27;9.50;;;;;;;-140.66;100.00;55571.53;5100285;28;20019;-72
2023/07/26 10:21:50;;;;;;;20.80;8.10;;;;;;;-140.66;100.00;55571.53;5118325;28;20044;-76
2023/07/26 10:24:36;;;;;;;28.58;8.43;;;;;;;-140.66;100.00;55571.53;5116501;28;20032;-77
2023/07/26 10:27:23;;;;;;;27.27;8.07;;;;;;;-140.66;100.00;55571.53;5115125;28;20031;-76
2023/07/26 10:30:10;;;;;;;24.48;8.77;;;;;;;-140.66;100.00;55571.53;5100796;28;20117;-77
2023/07/26 10:32:59;;;;;;;26.30;9.75;;;;;;;-140.66;100.00;55571.53;5116534;28;20084;-75
2023/07/26 10:35:46;;;;;;;21.75;8.20;;;;;;;-140.66;100.00;55571.53;5101902;28;20016;-76
2023/07/26 10:38:37;;;;;;;24.38;8.73;;;;;;;-140.66;100.00;55571.53;5109454;28;20027;-74
2023/07/26 10:41:25;;;;;;;27.58;9.18;;;;;;;-140.66;100.00;55571.53;5125447;28;20019;-76
2023/07/26 10:44:11;;;;;;;22.10;8.60;;;;;;;-140.66;100.00;55571.53;5116208;28;20062;-76
2023/07/26 10:47:02;;;;;;;31.02;9.45;;;;;;;-140.66;100.00;55571.53;5115958;28;20474;-76
2023/07/26 10:49:48;;;;;;;25.30;8.23;;;;;;;-140.66;100.00;55571.53;5115260;28;20452;-75
2023/07/26 10:52:36;;;;;;;21.20;7.95;;;;;;;-140.66;100.00;55571.53;5117100;27;20054;-76
2023/07/26 10:55:27;;;;;;;20.35;8.07;;;;;;;-140.66;100.00;55571.53;5115356;28;20027;-76
2023/07/26 10:58:13;;;;;;;33.00;8.77;;;;;;;-140.66;100.00;55571.53;5115019;28;20023;-77
2023/07/26 11:01:03;;;;;;;21.30;8.63;;;;;;;-140.66;100.00;55571.53;5115959;28;20443;-76
2023/07/26 11:03:50;;;;;;;24.05;8.55;;;;;;;-140.66;100.00;55571.53;5115779;28;20031;-75
2023/07/26 11:06:51;;;;;;;22.70;8.68;;;;;;;-140.66;100.00;55571.53;5114560;28;20024;-74
2023/07/26 11:09:37;;;;;;;23.73;8.55;;;;;;;-140.66;100.00;55571.53;5100393;28;20035;-74
2023/07/26 11:12:24;;;;;;;33.40;8.85;;;;;;;-140.66;100.00;55571.53;5114876;28;20023;-75
2023/07/26 11:15:10;;;;;;;26.20;8.60;;;;;;;-140.66;100.00;55571.53;5115599;28;20042;-75
2023/07/26 11:17:55;;;;;;;21.63;8.10;;;;;;;-140.66;100.00;55571.53;5115709;28;20097;-75
2023/07/26 11:20:51;;;;;;;30.70;8.48;;;;;;;-140.66;100.00;55571.53;5115800;28;20061;-75
2023/07/26 11:23:38;;;;;;;26.35;7.88;;;;;;;-140.66;100.00;55571.53;5115235;28;20024;-74
2023/07/26 11:26:25;;;;;;;17.50;8.45;;;;;;;-140.66;100.00;55571.53;5115620;28;20329;-74
2023/07/26 11:29:11;;;;;;;26.80;8.80;;;;;;;-140.66;100.00;55571.53;5102620;28;20024;-74
2023/07/26 11:31:57;;;;;;;23.25;8.20;;;;;;;-140.66;100.00;55571.53;5116215;28;20059;-75
2023/07/26 11:34:53;;;;;;;28.58;8.73;;;;;;;-140.66;100.00;55571.53;5116700;28;20444;-74
2023/07/26 11:37:39;;;;;;;21.20;7.95;;;;;;;-140.66;100.00;55571.53;5116718;28;20028;-75
2023/07/26 11:40:24;;;;;;;34.00;9.30;;;;;;;-140.66;100.00;55571.53;5117216;28;20047;-74
2023/07/26 11:43:10;;;;;;;26.63;8.77;;;;;;;-140.66;100.00;55571.53;5116681;28;20019;-74
2023/07/26 11:45:57;;;;;;;24.85;8.40;;;;;;;-140.66;100.00;55571.53;5117135;28;20093;-74
2023/07/26 11:48:44;;;;;;;29.45;8.80;;;;;;;-140.66;100.00;55571.53;5116901;28;20062;-75
2023/07/26 11:51:33;;;;;;;31.63;9.20;;;;;;;-140.66;100.00;55571.53;5114699;28;20055;-75
2023/07/26 11:54:19;;;;;;;24.67;8.98;;;;;;;-140.66;100.00;55571.53;5100671;28;20077;-74
2023/07/26 11:57:05;;;;;;;19.52;8.65;;;;;;;-140.66;100.00;55571.53;5118531;28;20038;-75
2023/07/26 11:59:54;;;;;;;32.70;9.40;;;;;;;-140.66;100.00;55571.53;5117863;28;20073;-75
2023/07/26 12:02:41;;;;;;;24.83;8.63;;;;;;;-140.66;100.00;55571.53;5102728;28;20024;-75
2023/07/26 12:05:28;;;;;;;21.48;8.10;;;;;;;-140.66;100.00;55571.53;5118554;28;20032;-75
2023/07/26 12:08:13;;;;;;;28.50;8.15;;;;;;;-140.66;100.00;55571.53;5118160;28;20027;-76
2023/07/26 12:11:02;;;;;;;34.42;8.98;;;;;;;-140.66;100.00;55571.53;5103644;28;20455;-76
2023/07/26 12:13:48;;;;;;;23.75;8.52;;;;;;;-140.66;100.00;55571.53;5118470;28;20057;-76
2023/07/26 12:16:35;;;;;;;18.45;8.60;;;;;;;-140.66;100.00;55571.53;5103546;28;20116;-76
2023/07/26 12:19:25;;;;;;;23.98;8.50;;;;;;;-140.66;100.00;55571.53;5119113;28;20161;-75
2023/07/26 12:22:11;;;;;;;24.35;8.30;;;;;;;-140.66;100.00;55571.53;5102898;28;20404;-74
2023/07/26 12:25:01;;;;;;;26.67;8.50;;;;;;;-140.66;100.00;55571.53;5118166;28;20329;-76
2023/07/26 12:27:49;;;;;;;24.50;9.40;;;;;;;-140.66;100.00;55571.53;5117619;28;20065;-75